createdAt,value
2017-12-06T16:12:57.925Z,10.65
2017-12-06T16:15:33.041Z,10.38
2017-12-06T16:24:00.232Z,11.65
2017-12-06T16:26:43.169Z,10.98
2017-12-06T16:29:22.843Z,12.60
2017-12-06T16:32:13.772Z,10.90
2017-12-06T16:35:02.683Z,10.38
2017-12-06T16:37:46.649Z,9.40
2017-12-06T16:40:41.233Z,9.68
2017-12-06T16:43:24.232Z,9.80
2017-12-06T16:46:03.427Z,9.10
2017-12-06T16:51:33.873Z,11.60
2017-12-06T17:10:24.361Z,14.18
2017-12-06T17:12:52.392Z,11.57
2017-12-06T17:15:19.989Z,12.23
2017-12-06T17:17:47.529Z,11.98
2017-12-06T17:20:15.236Z,12.07
2017-12-06T17:22:42.761Z,12.40
2017-12-06T17:25:10.500Z,11.82
2017-12-06T17:27:38.188Z,12.82
2017-12-06T17:30:17.630Z,12.90
2017-12-06T17:32:45.290Z,13.18
2017-12-06T17:35:13.074Z,12.82
2017-12-06T17:37:40.668Z,11.20
2017-12-06T17:40:09.663Z,11.95
2017-12-06T17:42:37.217Z,11.10
2017-12-06T17:45:05.735Z,11.40
2017-12-06T17:47:33.462Z,10.05
2017-12-06T17:53:12.884Z,12.73
2017-12-06T17:55:40.469Z,11.27
2017-12-06T17:58:08.124Z,10.43
2017-12-06T18:00:35.936Z,10.25
2017-12-06T18:03:03.434Z,10.60
2017-12-06T18:05:31.053Z,11.85
2017-12-06T18:07:58.615Z,12.50
2017-12-06T18:10:26.130Z,10.07
2017-12-06T18:12:53.862Z,11.55
2017-12-06T18:15:21.404Z,10.48
2017-12-06T18:17:49.041Z,11.07
2017-12-06T18:20:16.780Z,10.90
2017-12-06T18:22:44.324Z,12.10
2017-12-06T18:25:11.820Z,9.82
2017-12-06T18:27:39.358Z,9.82
2017-12-06T18:30:06.949Z,12.20
2017-12-06T18:32:34.459Z,10.40
2017-12-06T18:35:02.057Z,10.98
2017-12-06T18:37:29.727Z,10.68
2017-12-06T18:42:31.428Z,10.88
2017-12-06T18:44:59.147Z,10.40
2017-12-06T18:47:26.662Z,9.85
2017-12-06T18:49:54.259Z,10.73
2017-12-06T18:52:21.914Z,11.02
2017-12-06T18:54:49.592Z,11.25
2017-12-06T18:57:17.133Z,10.88
2017-12-06T18:59:44.885Z,11.43
2017-12-06T19:02:12.726Z,11.60
2017-12-06T19:04:40.280Z,10.80
2017-12-06T19:07:07.868Z,12.60
2017-12-06T19:09:35.500Z,12.10
2017-12-06T19:12:04.315Z,11.32
2017-12-06T19:14:32.163Z,11.95
2017-12-06T19:17:00.347Z,11.55
2017-12-06T19:19:27.864Z,13.18
2017-12-06T19:21:56.448Z,11.80
2017-12-06T19:24:24.617Z,12.68
2017-12-06T19:26:53.275Z,13.20
2017-12-06T19:29:21.230Z,12.75
2017-12-06T19:31:49.515Z,12.75
2017-12-06T19:34:18.047Z,12.95
2017-12-06T19:36:46.327Z,11.73
2017-12-06T19:39:13.909Z,12.07
2017-12-06T19:41:42.082Z,11.38
2017-12-06T19:44:10.421Z,14.32
2017-12-06T19:46:38.534Z,11.60
2017-12-06T19:49:06.814Z,12.55
2017-12-06T19:51:34.985Z,11.55
2017-12-06T19:54:02.535Z,12.35
2017-12-06T19:56:30.061Z,11.40
2017-12-06T19:58:57.621Z,11.38
2017-12-06T20:01:25.193Z,12.80
2017-12-06T20:03:52.770Z,11.45
2017-12-06T20:06:20.565Z,11.02
2017-12-06T20:08:49.123Z,11.30
2017-12-06T20:11:17.685Z,11.45
2017-12-06T20:13:46.086Z,12.10
2017-12-06T20:16:14.535Z,12.43
2017-12-06T20:18:42.133Z,11.80
2017-12-06T20:21:09.710Z,12.60
2017-12-06T20:23:37.272Z,13.23
2017-12-06T20:26:05.584Z,11.30
2017-12-06T20:28:33.711Z,11.52
2017-12-06T20:31:01.220Z,12.18
2017-12-06T20:33:29.655Z,11.95
2017-12-06T20:35:57.220Z,11.35
2017-12-06T20:38:24.840Z,9.13
2017-12-06T20:40:52.939Z,11.35
2017-12-06T20:43:20.910Z,12.45
2017-12-06T20:45:48.921Z,11.85
2017-12-06T20:48:16.734Z,10.90
2017-12-06T20:50:53.835Z,11.40
2017-12-06T20:56:14.456Z,12.37
2017-12-06T20:58:42.973Z,14.80
2017-12-06T21:01:11.043Z,9.30
2017-12-06T21:03:38.860Z,13.02
2017-12-06T21:06:07.797Z,15.20
2017-12-06T21:08:37.338Z,10.98
2017-12-06T21:11:05.930Z,10.20
2017-12-06T21:13:34.916Z,9.30
2017-12-06T21:16:02.901Z,10.20
2017-12-06T21:18:31.008Z,11.60
2017-12-06T21:20:58.791Z,12.32
2017-12-06T21:23:27.217Z,11.63
2017-12-06T21:25:55.633Z,10.15
2017-12-06T21:28:23.792Z,10.75
2017-12-06T21:30:52.408Z,10.75
2017-12-06T21:33:21.846Z,11.88
2017-12-06T21:35:49.541Z,10.40
2017-12-06T21:38:18.390Z,12.40
2017-12-06T21:40:46.636Z,10.80
2017-12-06T21:43:16.221Z,12.02
2017-12-06T21:45:43.949Z,11.60
2017-12-06T21:48:11.819Z,12.80
2017-12-06T21:50:39.623Z,11.75
2017-12-06T21:53:08.681Z,12.43
2017-12-06T21:55:36.323Z,12.57
2017-12-06T21:58:04.196Z,12.37
2017-12-06T22:00:32.031Z,11.98
2017-12-06T22:03:00.068Z,13.00
2017-12-06T22:05:29.205Z,13.50
2017-12-06T22:07:57.076Z,14.18
2017-12-06T22:10:27.309Z,14.82
2017-12-06T22:12:55.056Z,13.27
2017-12-06T22:15:22.857Z,14.68
2017-12-06T22:17:50.769Z,11.80
2017-12-06T22:20:18.807Z,13.27
2017-12-06T22:22:47.425Z,12.25
2017-12-06T22:25:15.375Z,12.18
2017-12-06T22:27:44.682Z,14.63
2017-12-06T22:30:13.358Z,14.45
2017-12-06T22:32:43.495Z,14.05
2017-12-06T22:35:14.511Z,15.57
2017-12-06T22:37:42.449Z,16.37
2017-12-06T22:40:10.545Z,14.73
2017-12-06T22:42:38.461Z,14.75
2017-12-06T22:45:16.337Z,14.80
2017-12-06T22:47:46.131Z,13.90
2017-12-06T22:50:13.734Z,15.00
2017-12-06T22:52:41.426Z,14.80
2017-12-06T22:55:11.961Z,16.08
2017-12-06T22:57:44.363Z,15.70
2017-12-06T23:00:13.152Z,16.00
2017-12-06T23:02:41.327Z,14.95
2017-12-06T23:05:09.164Z,15.80
2017-12-06T23:07:36.950Z,17.67
2017-12-06T23:10:05.420Z,17.10
2017-12-06T23:12:34.487Z,15.45
2017-12-06T23:15:03.442Z,17.48
2017-12-06T23:17:31.400Z,15.07
2017-12-06T23:20:00.254Z,17.08
2017-12-06T23:22:29.294Z,16.08
2017-12-06T23:24:57.075Z,16.52
2017-12-06T23:27:25.865Z,14.82
2017-12-06T23:29:54.643Z,14.43
2017-12-06T23:32:23.629Z,16.33
2017-12-06T23:34:53.178Z,15.68
2017-12-06T23:37:22.058Z,16.08
2017-12-06T23:39:50.912Z,15.45
2017-12-06T23:42:18.931Z,16.12
2017-12-06T23:44:46.700Z,14.40
2017-12-06T23:47:14.652Z,14.10
2017-12-06T23:49:42.438Z,15.07
2017-12-06T23:52:16.616Z,14.32
2017-12-06T23:55:08.711Z,15.68
2017-12-06T23:57:36.668Z,14.80
